RS-0012 weather

Titel Airstrip
Titel, Serbia

Public forecast

Using degrees Celsius for public forecast. Weather courtesy of forecast.io.

METAR (pilot weather report)

Closest report is Batajnica Air Base, 15.8 nm (29.2 km) S. Retrieved 2019/06/16 02:30 UTC (7 minutes ago):

LYBT 160230Z 07006KT 030V140 CAVOK 21/19 Q1011 NOSIG

TAF (pilot weather forecast)

Forecast is more than 12 hours old.

Closest forecast is Batajnica Air Base, 15.8 nm (29.2 km) S. Retrieved 2019/06/15 00:00 UTC (1 day ago):

TAF LYBT 152300Z 1600/1624 08006KT CAVOK TX33/1614Z TN20/1603Z TEMPO 1618/1624 VRB15KT 3000 TSRA SCT030CB BKN040